createdAt,value
2022-10-17T00:05:46.191Z,101433.13
2022-10-17T00:15:47.398Z,101440.66
2022-10-17T00:25:48.638Z,101424.06
2022-10-17T00:35:49.871Z,101416.53
2022-10-17T00:45:51.174Z,101413.78
2022-10-17T00:55:52.412Z,101416.53
2022-10-17T01:05:53.679Z,101419.78
2022-10-17T01:15:54.916Z,101405.97
2022-10-17T01:25:56.158Z,101407.94
2022-10-17T01:36:00.541Z,101405.97
2022-10-17T01:46:06.082Z,101395.38
2022-10-17T01:56:07.310Z,101395.38
2022-10-17T02:06:08.589Z,101390.88
2022-10-17T02:16:09.812Z,101377.53
2022-10-17T02:26:11.059Z,101377.53
2022-10-17T02:36:12.317Z,101379.53
2022-10-17T02:46:13.577Z,101378.78
2022-10-17T02:56:14.845Z,101383.06
2022-10-17T03:06:16.078Z,101383.84
2022-10-17T03:16:17.293Z,101373.25
2022-10-17T03:26:18.531Z,101384.31
2022-10-17T03:36:19.770Z,101380.28
2022-10-17T03:46:21.015Z,101367.72
2022-10-17T03:56:22.225Z,101368.94
2022-10-17T04:06:23.445Z,101379.53
2022-10-17T04:16:24.695Z,101383.53
2022-10-17T04:26:25.928Z,101398.16
2022-10-17T04:36:27.146Z,101409.94
2022-10-17T04:46:28.398Z,101419.50
2022-10-17T04:56:29.683Z,101436.09
2022-10-17T05:06:30.952Z,101442.84
2022-10-17T05:16:32.328Z,101435.31
2022-10-17T05:26:33.570Z,101453.44
2022-10-17T05:36:34.798Z,101452.19
2022-10-17T05:46:36.081Z,101468.78
2022-10-17T05:56:37.334Z,101470.03
2022-10-17T06:06:38.586Z,101470.94
2022-10-17T06:16:39.850Z,101476.44
2022-10-17T06:26:41.281Z,101477.16
2022-10-17T06:36:42.515Z,101485.16
2022-10-17T06:46:43.954Z,101495.75
2022-10-17T06:56:45.188Z,101507.28
2022-10-17T07:06:46.610Z,101511.38
2022-10-17T07:16:47.936Z,101501.06
2022-10-17T07:26:49.307Z,101516.44
2022-10-17T07:36:50.647Z,101580.34
2022-10-17T07:46:51.970Z,101647.97
2022-10-17T07:56:53.417Z,101687.97
2022-10-17T08:07:05.452Z,101667.06
2022-10-17T08:17:13.116Z,101695.47
2022-10-17T08:27:14.496Z,101733.19
2022-10-17T08:37:15.848Z,101739.00
2022-10-17T08:47:17.091Z,101735.75
2022-10-17T08:57:18.433Z,101716.56
2022-10-17T09:07:19.652Z,101741.78
2022-10-17T09:17:21.055Z,101789.28
2022-10-17T09:27:22.374Z,101754.84
2022-10-17T09:37:23.801Z,101696.25
2022-10-17T09:47:25.172Z,101760.53
2022-10-17T09:57:26.555Z,101729.81
2022-10-17T10:07:29.337Z,101741.16
2022-10-17T10:17:30.872Z,101770.22
2022-10-17T10:37:34.309Z,101818.22
2022-10-17T10:47:35.673Z,101856.97
2022-10-17T10:57:37.016Z,101862.81
2022-10-17T11:07:38.360Z,101859.44
2022-10-17T11:17:39.616Z,101873.78
2022-10-17T11:27:41.013Z,101889.91
2022-10-17T11:37:44.171Z,101907.31
2022-10-17T11:47:46.378Z,101907.13
2022-10-17T11:57:47.828Z,101930.31
2022-10-17T12:07:49.081Z,101927.94
2022-10-17T12:17:50.297Z,101930.06
2022-10-17T12:27:51.566Z,101937.75
2022-10-17T12:37:54.382Z,101932.81
2022-10-17T12:47:58.639Z,101936.63
2022-10-17T12:58:00.197Z,101962.31
2022-10-17T13:08:01.531Z,101984.47
2022-10-17T13:18:03.068Z,101984.94
2022-10-17T13:28:04.334Z,101992.78
2022-10-17T13:38:06.800Z,102009.38
2022-10-17T13:48:09.059Z,102010.59
2022-10-17T13:58:10.503Z,102026.78
2022-10-17T14:08:14.444Z,102055.19
2022-10-17T14:18:19.304Z,102060.25
2022-10-17T14:28:20.553Z,102072.28
2022-10-17T14:38:21.995Z,102071.81
2022-10-17T14:48:23.247Z,102066.28
2022-10-17T14:58:24.747Z,102061.97
2022-10-17T15:08:26.009Z,102066.09
2022-10-17T15:18:28.669Z,102081.94
2022-10-17T15:28:30.116Z,102113.47
2022-10-17T15:38:31.539Z,102123.78
2022-10-17T15:48:34.799Z,102137.31
2022-10-17T15:58:36.095Z,102144.41
2022-10-17T16:08:37.610Z,102166.56
2022-10-17T16:18:38.960Z,102166.25
2022-10-17T16:28:46.083Z,102170.25
2022-10-17T16:38:47.761Z,102169.19
2022-10-17T16:48:50.839Z,102180.72
2022-10-17T16:58:52.295Z,102184.25
2022-10-17T17:08:53.646Z,102193.78
2022-10-17T17:18:54.906Z,102199.31
2022-10-17T17:28:56.387Z,102210.41
2022-10-17T17:38:57.828Z,102224.69
2022-10-17T17:48:59.192Z,102239.31
2022-10-17T17:59:00.483Z,102242.25
2022-10-17T18:09:01.725Z,102246.25
2022-10-17T18:19:05.877Z,102261.16
2022-10-17T18:29:08.118Z,102268.72
2022-10-17T18:39:09.366Z,102266.69
2022-10-17T18:49:10.838Z,102277.78
2022-10-17T18:59:12.317Z,102284.09
2022-10-17T19:09:13.643Z,102292.84
2022-10-17T19:19:14.910Z,102284.09
2022-10-17T19:29:16.259Z,102292.06
2022-10-17T19:39:17.470Z,102296.69
2022-10-17T19:49:18.813Z,102303.63
2022-10-17T19:59:20.247Z,102312.06
2022-10-17T20:09:21.495Z,102308.38
2022-10-17T20:19:22.876Z,102319.44
2022-10-17T20:29:24.290Z,102320.84
2022-10-17T20:39:25.527Z,102317.75
2022-10-17T20:49:26.764Z,102338.22
2022-10-17T20:59:28.157Z,102339.91
2022-10-17T21:09:29.470Z,102345.28
2022-10-17T21:19:30.774Z,102331.59
2022-10-17T21:29:31.990Z,102345.44
2022-10-17T21:39:33.525Z,102368.69
2022-10-17T21:49:34.753Z,102367.16
2022-10-17T21:59:35.985Z,102389.28
2022-10-17T22:09:37.207Z,102400.03
2022-10-17T22:19:38.422Z,102398.50
2022-10-17T22:29:39.648Z,102408.34
2022-10-17T22:39:40.878Z,102400.38
2022-10-17T22:49:42.117Z,102400.03
2022-10-17T22:59:43.365Z,102405.59
2022-10-17T23:09:44.605Z,102396.81
2022-10-17T23:19:45.829Z,102409.56
2022-10-17T23:29:52.294Z,102405.28
2022-10-17T23:39:53.494Z,102407.72
2022-10-17T23:49:54.717Z,102417.59
2022-10-17T23:59:55.951Z,102399.72
